Time;durP1;ratioP1;P1;durP2;ratioP2;P2;SDS_P1;SDS_P2;PMS_P1;PMS_P2;Temp;Humidity;BMP_temperature;BMP_pressure;BME280_temperature;BME280_humidity;BME280_pressure;Samples;Min_cycle;Max_cycle;Signal;HPM_P1;HPM_P2
2023/07/23 00:00:30;;;;;;;15.73;9.80;;;13.80;99.90;;;;;;4991497;28;20417;-51
2023/07/23 00:02:55;;;;;;;22.77;11.90;;;13.80;99.90;;;;;;4990794;28;20183;-52
2023/07/23 00:05:25;;;;;;;15.30;10.53;;;13.90;99.90;;;;;;4991821;28;20476;-49
2023/07/23 00:07:54;;;;;;;19.53;11.60;;;13.90;99.90;;;;;;4991154;28;20217;-51
2023/07/23 00:10:19;;;;;;;16.00;11.60;;;13.90;99.90;;;;;;4991888;28;20418;-51
2023/07/23 00:12:45;;;;;;;17.20;11.20;;;13.80;99.90;;;;;;4991526;28;20470;-51
2023/07/23 00:15:12;;;;;;;19.23;11.60;;;13.80;99.90;;;;;;4991102;28;20211;-51
2023/07/23 00:17:39;;;;;;;15.13;10.10;;;13.80;99.90;;;;;;4991583;28;20190;-51
2023/07/23 00:20:05;;;;;;;19.00;10.90;;;13.80;99.90;;;;;;4990923;28;20525;-51
2023/07/23 00:22:31;;;;;;;19.60;11.13;;;13.80;99.90;;;;;;4991145;28;20415;-50
2023/07/23 00:24:57;;;;;;;15.53;11.03;;;13.80;99.90;;;;;;4990474;28;20425;-51
2023/07/23 00:27:26;;;;;;;16.80;11.37;;;13.80;99.90;;;;;;4991122;28;20262;-51
2023/07/23 00:29:51;;;;;;;20.43;13.40;;;13.90;99.90;;;;;;4991080;28;20418;-51
2023/07/23 00:32:17;;;;;;;17.60;12.17;;;13.90;99.90;;;;;;4991451;28;20410;-50
2023/07/23 00:34:43;;;;;;;21.70;13.67;;;13.90;99.90;;;;;;4991522;28;20709;-51
2023/07/23 00:37:09;;;;;;;19.53;13.30;;;14.00;99.90;;;;;;4990732;28;20685;-51
2023/07/23 00:39:34;;;;;;;20.83;13.47;;;14.00;99.90;;;;;;4991142;28;20194;-50
2023/07/23 00:42:00;;;;;;;21.63;15.00;;;14.10;99.90;;;;;;4991020;28;20505;-52
2023/07/23 00:44:26;;;;;;;22.73;13.77;;;14.10;99.90;;;;;;4990633;28;20191;-51
2023/07/23 00:46:52;;;;;;;19.53;15.33;;;14.20;99.90;;;;;;4990886;28;20223;-50
2023/07/23 00:49:18;;;;;;;20.33;14.90;;;14.20;99.90;;;;;;4991330;28;20410;-51
2023/07/23 00:51:45;;;;;;;21.17;14.87;;;14.30;99.90;;;;;;4990825;28;21035;-50
2023/07/23 00:54:12;;;;;;;22.47;14.87;;;14.20;99.90;;;;;;4990914;28;20261;-52
2023/07/23 00:56:40;;;;;;;19.70;15.00;;;14.20;99.90;;;;;;4990058;28;20486;-51
2023/07/23 00:59:07;;;;;;;22.20;15.20;;;14.20;99.90;;;;;;4991263;28;20456;-51
2023/07/23 01:01:32;;;;;;;25.17;16.33;;;14.20;99.90;;;;;;4991183;28;20418;-51
2023/07/23 01:03:58;;;;;;;23.50;14.80;;;14.20;99.90;;;;;;4990290;28;20422;-51
2023/07/23 01:06:26;;;;;;;24.03;17.00;;;14.30;99.90;;;;;;4990306;28;20182;-52
2023/07/23 01:08:56;;;;;;;22.13;16.03;;;14.30;99.90;;;;;;4991122;28;20244;-52
2023/07/23 01:11:24;;;;;;;27.57;17.57;;;14.30;99.90;;;;;;4990490;28;20433;-51
2023/07/23 01:13:51;;;;;;;22.50;16.53;;;14.20;99.90;;;;;;4991347;28;20471;-52
2023/07/23 01:16:18;;;;;;;23.77;17.17;;;14.40;99.90;;;;;;4990411;28;20430;-50
2023/07/23 01:18:44;;;;;;;23.60;16.37;;;14.50;99.90;;;;;;4990018;28;20431;-51
2023/07/23 01:21:10;;;;;;;20.60;15.73;;;14.50;99.90;;;;;;4991407;28;20521;-51
2023/07/23 01:23:36;;;;;;;22.20;17.20;;;14.40;99.90;;;;;;4990505;28;21034;-51
2023/07/23 01:26:03;;;;;;;22.63;16.73;;;14.50;99.90;;;;;;4989664;28;20750;-51
2023/07/23 01:28:29;;;;;;;22.33;15.83;;;14.50;99.90;;;;;;4990657;28;20424;-52
2023/07/23 01:30:55;;;;;;;24.60;17.37;;;14.40;99.90;;;;;;4989243;28;20433;-52
2023/07/23 01:33:22;;;;;;;26.37;16.90;;;14.40;99.90;;;;;;4989600;28;20803;-52
2023/07/23 01:35:53;;;;;;;30.30;19.33;;;14.40;99.90;;;;;;4990435;28;20568;-51
2023/07/23 01:38:19;;;;;;;25.03;17.43;;;14.40;99.90;;;;;;4990345;28;20517;-50
2023/07/23 01:40:45;;;;;;;26.00;18.43;;;14.50;99.90;;;;;;4990409;28;20442;-52
2023/07/23 01:43:12;;;;;;;27.23;18.43;;;14.40;99.90;;;;;;4990320;28;20919;-50
2023/07/23 01:45:41;;;;;;;23.67;17.33;;;14.50;99.90;;;;;;4990377;28;20202;-51
2023/07/23 01:48:07;;;;;;;30.47;17.93;;;14.50;99.90;;;;;;4989439;28;20423;-50
2023/07/23 01:50:33;;;;;;;26.40;17.43;;;14.50;99.90;;;;;;4990667;28;20457;-51
2023/07/23 01:52:58;;;;;;;23.20;17.20;;;14.40;99.90;;;;;;4989597;28;20192;-51
2023/07/23 01:55:24;;;;;;;26.67;18.27;;;14.40;99.90;;;;;;4989365;28;20246;-50
2023/07/23 01:57:50;;;;;;;25.73;17.10;;;14.40;99.90;;;;;;4988750;28;20655;-52
2023/07/23 02:00:15;;;;;;;27.40;19.07;;;14.30;99.90;;;;;;4989459;28;20193;-50
2023/07/23 02:02:41;;;;;;;22.33;16.70;;;14.30;99.90;;;;;;4989295;28;20187;-51
2023/07/23 02:05:07;;;;;;;23.53;18.10;;;14.40;99.90;;;;;;4988831;28;20188;-51
2023/07/23 02:07:32;;;;;;;29.33;18.00;;;14.40;99.90;;;;;;4989180;28;20207;-51
2023/07/23 02:09:58;;;;;;;24.23;17.80;;;14.50;99.90;;;;;;4988538;28;20183;-51
2023/07/23 02:12:23;;;;;;;28.63;18.20;;;14.40;99.90;;;;;;4987246;28;20195;-52
2023/07/23 02:14:49;;;;;;;27.13;18.40;;;14.40;99.90;;;;;;4989285;28;20585;-51
2023/07/23 02:17:15;;;;;;;26.13;17.10;;;14.50;99.90;;;;;;4987925;28;20513;-50
2023/07/23 02:19:40;;;;;;;26.27;18.83;;;14.40;99.90;;;;;;4988803;28;20203;-52
2023/07/23 02:22:06;;;;;;;26.50;17.20;;;14.50;99.90;;;;;;4988680;28;20191;-51
2023/07/23 02:24:32;;;;;;;24.77;17.57;;;14.50;99.90;;;;;;4988838;28;20191;-50
2023/07/23 02:26:57;;;;;;;26.53;17.50;;;14.50;99.90;;;;;;4989384;28;20480;-51
2023/07/23 02:29:23;;;;;;;25.60;17.73;;;14.40;99.90;;;;;;4988452;28;20184;-51
2023/07/23 02:31:48;;;;;;;25.40;18.57;;;14.50;99.90;;;;;;4988298;28;20184;-51
2023/07/23 02:34:14;;;;;;;28.30;18.73;;;14.40;99.90;;;;;;4988040;28;20208;-51
2023/07/23 02:36:40;;;;;;;26.33;17.03;;;14.40;99.90;;;;;;4988857;28;20222;-50
2023/07/23 02:39:05;;;;;;;26.37;18.50;;;14.40;99.90;;;;;;4988988;28;20190;-51
2023/07/23 02:41:31;;;;;;;33.23;17.77;;;14.40;99.90;;;;;;4988571;28;20192;-51
2023/07/23 02:43:57;;;;;;;23.07;16.30;;;14.40;99.90;;;;;;4987171;28;20511;-52
2023/07/23 02:46:23;;;;;;;23.13;17.17;;;14.60;99.90;;;;;;4988965;28;20183;-51
2023/07/23 02:48:48;;;;;;;25.23;16.20;;;14.50;99.90;;;;;;4988404;28;20182;-51
2023/07/23 02:51:14;;;;;;;28.13;16.90;;;14.50;99.90;;;;;;4988658;28;20187;-52
2023/07/23 02:53:39;;;;;;;22.00;15.77;;;14.60;99.90;;;;;;4988755;28;20186;-51
2023/07/23 02:56:05;;;;;;;24.50;16.07;;;14.50;99.90;;;;;;4950724;28;1091580;-52
2023/07/23 02:58:31;;;;;;;27.00;17.13;;;14.50;99.90;;;;;;4988237;28;20821;-51
2023/07/23 03:00:57;;;;;;;22.40;16.23;;;14.40;99.90;;;;;;4989401;28;20221;-50
2023/07/23 03:03:23;;;;;;;27.50;16.67;;;14.40;99.90;;;;;;4989449;28;20187;-50
2023/07/23 03:05:48;;;;;;;28.10;17.80;;;14.50;99.90;;;;;;4988441;28;20194;-51
2023/07/23 03:08:14;;;;;;;25.13;16.60;;;14.50;99.90;;;;;;4988500;28;20483;-51
2023/07/23 03:10:41;;;;;;;21.03;16.30;;;14.50;99.90;;;;;;4989515;28;20270;-51
2023/07/23 03:13:07;;;;;;;22.67;15.40;;;14.50;99.90;;;;;;4988425;28;20187;-51
2023/07/23 03:15:32;;;;;;;21.77;16.90;;;14.50;99.90;;;;;;4989068;28;20466;-50
2023/07/23 03:17:58;;;;;;;22.37;16.90;;;14.60;99.90;;;;;;4989032;28;20767;-50
2023/07/23 03:20:24;;;;;;;27.60;16.67;;;14.60;99.90;;;;;;4988928;28;20275;-51
2023/07/23 03:22:49;;;;;;;22.33;15.40;;;14.60;99.90;;;;;;4988249;28;20514;-50
2023/07/23 03:25:16;;;;;;;28.87;16.80;;;14.60;99.90;;;;;;4988684;28;20195;-51
2023/07/23 03:27:42;;;;;;;26.00;16.83;;;14.60;99.90;;;;;;4988935;28;20554;-51
2023/07/23 03:30:08;;;;;;;24.20;16.07;;;14.60;99.90;;;;;;4988521;28;20423;-52
2023/07/23 03:32:34;;;;;;;21.80;15.87;;;14.60;99.90;;;;;;4989056;28;20516;-50
2023/07/23 03:34:59;;;;;;;20.60;14.87;;;14.60;99.90;;;;;;4988531;28;20302;-52
2023/07/23 03:37:25;;;;;;;17.53;14.60;;;14.70;99.90;;;;;;4988785;28;20214;-51
2023/07/23 03:39:50;;;;;;;19.77;14.80;;;14.70;99.90;;;;;;4988219;28;20263;-50
2023/07/23 03:42:16;;;;;;;23.80;15.93;;;14.60;99.90;;;;;;4989140;28;20195;-51
2023/07/23 03:44:42;;;;;;;22.50;16.10;;;14.70;99.90;;;;;;4988930;28;20202;-50
2023/07/23 03:47:13;;;;;;;19.47;14.97;;;14.70;99.90;;;;;;4988215;28;20551;-52
2023/07/23 03:49:39;;;;;;;19.50;15.20;;;14.70;99.90;;;;;;4988458;28;20189;-51
2023/07/23 03:52:05;;;;;;;20.67;16.10;;;14.70;99.90;;;;;;4988632;28;20505;-51
2023/07/23 03:54:32;;;;;;;20.70;15.00;;;14.70;99.90;;;;;;4988123;28;20251;-50
2023/07/23 03:56:57;;;;;;;18.60;14.10;;;14.70;99.90;;;;;;4992423;28;20415;-52
2023/07/23 03:59:28;;;;;;;21.47;14.20;;;14.70;99.90;;;;;;4991058;28;20962;-51
2023/07/23 04:01:54;;;;;;;21.37;14.90;;;14.80;99.90;;;;;;4991510;28;20179;-52
2023/07/23 04:04:20;;;;;;;22.00;15.40;;;14.70;99.90;;;;;;4992267;28;20422;-51
2023/07/23 04:06:45;;;;;;;21.57;14.70;;;14.80;99.90;;;;;;4990878;28;20253;-52
2023/07/23 04:09:13;;;;;;;19.43;13.40;;;14.70;99.90;;;;;;4991986;28;20179;-51
2023/07/23 04:11:39;;;;;;;20.07;14.97;;;14.70;99.90;;;;;;4991352;28;20194;-52
2023/07/23 04:14:04;;;;;;;23.27;15.23;;;14.70;99.90;;;;;;4991410;28;20989;-50
2023/07/23 04:16:30;;;;;;;21.27;13.73;;;14.70;99.90;;;;;;4991999;28;20660;-50
2023/07/23 04:18:55;;;;;;;18.17;13.27;;;14.80;99.90;;;;;;4990942;28;20272;-51
2023/07/23 04:21:22;;;;;;;20.50;13.63;;;14.80;99.90;;;;;;4991363;28;20620;-51
2023/07/23 04:23:48;;;;;;;18.33;12.90;;;14.80;99.90;;;;;;4990923;28;20581;-51
2023/07/23 04:26:15;;;;;;;21.80;13.37;;;14.80;99.90;;;;;;4991727;28;20458;-50
2023/07/23 04:28:41;;;;;;;13.63;12.20;;;14.80;99.90;;;;;;4991573;28;20422;-52
2023/07/23 04:31:06;;;;;;;15.73;11.50;;;14.80;99.90;;;;;;4990965;28;20412;-51
2023/07/23 04:33:32;;;;;;;14.97;11.87;;;14.90;99.90;;;;;;4991139;28;20247;-52
2023/07/23 04:35:57;;;;;;;16.83;11.80;;;14.90;99.90;;;;;;4990897;28;20219;-50
2023/07/23 04:38:23;;;;;;;15.87;12.00;;;14.90;99.90;;;;;;4990997;28;20639;-52
2023/07/23 04:40:49;;;;;;;15.53;11.40;;;14.90;99.90;;;;;;4991297;28;20559;-52
2023/07/23 04:43:14;;;;;;;17.67;12.30;;;14.90;99.90;;;;;;4990864;28;20191;-50
2023/07/23 04:45:40;;;;;;;16.73;11.67;;;14.80;99.90;;;;;;4990783;28;20436;-51
2023/07/23 04:48:06;;;;;;;16.40;11.87;;;14.90;99.90;;;;;;4991413;28;20222;-51
2023/07/23 04:50:32;;;;;;;17.13;11.67;;;14.80;99.90;;;;;;4989966;28;20429;-52
2023/07/23 04:52:57;;;;;;;17.80;12.20;;;14.80;99.90;;;;;;4990591;28;20186;-52
2023/07/23 04:55:24;;;;;;;15.80;10.70;;;14.80;99.90;;;;;;4990679;28;20711;-52
2023/07/23 04:57:50;;;;;;;12.73;10.27;;;14.80;99.90;;;;;;4990525;28;20257;-51
2023/07/23 05:00:16;;;;;;;15.57;11.30;;;14.90;99.90;;;;;;4990752;28;20922;-52
2023/07/23 05:02:42;;;;;;;14.83;10.77;;;14.90;99.90;;;;;;4990968;28;20195;-52
2023/07/23 05:05:08;;;;;;;15.80;10.93;;;14.90;99.90;;;;;;4990789;28;20946;-52
2023/07/23 05:07:34;;;;;;;19.33;11.37;;;14.90;99.90;;;;;;4989637;28;20290;-52
2023/07/23 05:09:59;;;;;;;16.20;10.70;;;14.90;99.90;;;;;;4989590;28;20188;-52
2023/07/23 05:12:25;;;;;;;15.27;10.23;;;14.90;99.90;;;;;;4989769;28;20188;-51
2023/07/23 05:14:50;;;;;;;12.00;10.13;;;15.00;99.90;;;;;;4990154;28;20212;-51
2023/07/23 05:17:16;;;;;;;14.63;11.00;;;14.90;99.90;;;;;;4991277;28;20191;-51
2023/07/23 05:19:41;;;;;;;17.93;11.37;;;14.90;99.90;;;;;;4991198;28;20226;-51
2023/07/23 05:22:07;;;;;;;13.47;11.20;;;14.90;99.90;;;;;;4990363;28;20191;-51
2023/07/23 05:24:32;;;;;;;17.70;10.63;;;14.90;99.90;;;;;;4989693;28;20183;-52
2023/07/23 05:26:58;;;;;;;17.50;10.33;;;14.90;99.90;;;;;;4989951;28;20549;-50
2023/07/23 05:29:24;;;;;;;15.27;10.30;;;15.00;99.90;;;;;;4990989;28;20186;-50
2023/07/23 05:31:50;;;;;;;15.40;10.93;;;14.90;99.90;;;;;;4990323;28;20434;-52
2023/07/23 05:34:16;;;;;;;16.83;10.47;;;14.80;99.90;;;;;;4990271;28;20222;-51
2023/07/23 05:36:42;;;;;;;12.20;9.57;;;14.80;99.90;;;;;;4989923;28;20418;-51
2023/07/23 05:39:09;;;;;;;14.80;10.43;;;14.80;99.90;;;;;;4989632;28;20190;-52
2023/07/23 05:41:34;;;;;;;17.90;10.50;;;14.90;99.90;;;;;;4990333;28;20270;-49
2023/07/23 05:44:00;;;;;;;13.57;9.30;;;14.90;99.90;;;;;;4990646;28;20526;-52
2023/07/23 05:46:26;;;;;;;13.13;10.50;;;15.00;99.90;;;;;;4989916;28;20226;-51
2023/07/23 05:48:51;;;;;;;27.03;9.40;;;14.90;99.90;;;;;;4990101;28;20195;-51
2023/07/23 05:51:17;;;;;;;15.70;8.43;;;14.90;99.90;;;;;;4989186;28;20204;-52
2023/07/23 05:53:42;;;;;;;14.63;9.50;;;15.00;99.90;;;;;;4990622;28;20186;-51
2023/07/23 05:56:08;;;;;;;11.40;8.80;;;15.00;99.90;;;;;;4990053;28;20246;-53
2023/07/23 05:58:34;;;;;;;13.33;9.10;;;15.10;99.90;;;;;;4990491;28;20193;-50
2023/07/23 06:00:59;;;;;;;15.50;8.70;;;15.10;99.90;;;;;;4989067;28;20270;-52
2023/07/23 06:03:25;;;;;;;16.57;9.20;;;15.10;99.90;;;;;;4989435;28;20191;-51
2023/07/23 06:05:50;;;;;;;11.33;8.03;;;15.10;99.90;;;;;;4990190;28;20187;-52
2023/07/23 06:08:16;;;;;;;14.60;8.77;;;15.10;99.90;;;;;;4990100;28;20191;-51
2023/07/23 06:10:42;;;;;;;13.90;9.60;;;15.20;99.90;;;;;;4989439;28;20183;-53
2023/07/23 06:13:07;;;;;;;9.80;8.33;;;15.30;99.90;;;;;;4989486;28;20194;-52
2023/07/23 06:15:33;;;;;;;11.10;7.47;;;15.40;99.90;;;;;;4989315;28;20224;-52
2023/07/23 06:17:58;;;;;;;15.00;8.10;;;15.50;99.90;;;;;;4989667;28;20194;-53
2023/07/23 06:20:25;;;;;;;13.53;7.83;;;15.50;99.90;;;;;;4989673;28;20188;-52
2023/07/23 06:22:50;;;;;;;10.90;7.53;;;15.50;99.90;;;;;;4989702;28;20226;-52
2023/07/23 06:25:16;;;;;;;10.40;7.60;;;15.50;99.90;;;;;;4989531;28;20449;-52
2023/07/23 06:27:42;;;;;;;10.33;7.87;;;15.50;99.90;;;;;;4989924;28;20186;-52
2023/07/23 06:30:08;;;;;;;9.57;7.43;;;15.50;99.90;;;;;;4988855;28;20715;-51
2023/07/23 06:32:33;;;;;;;11.20;8.10;;;15.50;99.90;;;;;;4988759;28;20201;-52
2023/07/23 06:34:59;;;;;;;12.57;8.30;;;15.60;99.90;;;;;;4989708;28;20474;-51
2023/07/23 06:37:24;;;;;;;10.60;7.50;;;15.60;99.90;;;;;;4989525;28;20187;-51
2023/07/23 06:39:50;;;;;;;12.70;9.20;;;15.60;99.90;;;;;;4989214;28;20267;-51
2023/07/23 06:42:15;;;;;;;10.50;7.83;;;15.60;99.90;;;;;;4988729;28;20523;-51
2023/07/23 06:44:42;;;;;;;15.17;8.10;;;15.60;99.90;;;;;;4989298;28;20186;-52
2023/07/23 06:47:07;;;;;;;11.20;8.60;;;15.60;99.90;;;;;;4989649;28;20189;-52
2023/07/23 06:49:33;;;;;;;11.83;8.43;;;15.60;99.90;;;;;;4988785;28;20417;-51
2023/07/23 06:51:59;;;;;;;13.63;9.53;;;15.70;99.90;;;;;;4989130;28;20183;-51
2023/07/23 06:54:24;;;;;;;10.17;8.53;;;15.70;99.90;;;;;;4988783;28;20580;-52
2023/07/23 06:56:54;;;;;;;13.63;9.23;;;15.80;99.90;;;;;;4989436;28;20202;-52
2023/07/23 06:59:20;;;;;;;15.93;9.27;;;15.90;99.90;;;;;;4988906;28;20184;-52
2023/07/23 07:01:45;;;;;;;13.23;9.43;;;15.90;99.90;;;;;;4989500;28;20496;-51
2023/07/23 07:04:11;;;;;;;18.47;9.67;;;16.00;99.90;;;;;;4988469;28;20903;-52
2023/07/23 07:06:37;;;;;;;14.00;9.50;;;16.00;83.40;;;;;;4989594;28;20181;-51
2023/07/23 07:09:02;;;;;;;13.07;8.67;;;16.00;23.50;;;;;;4988802;28;20183;-50
2023/07/23 07:11:28;;;;;;;12.83;9.07;;;16.00;73.40;;;;;;4989362;28;20179;-52
2023/07/23 07:13:54;;;;;;;14.07;9.20;;;16.00;99.90;;;;;;4988264;28;20266;-51
2023/07/23 07:16:20;;;;;;;14.83;10.30;;;16.10;99.90;;;;;;4988142;28;20238;-52
2023/07/23 07:18:45;;;;;;;17.73;10.23;;;16.20;99.90;;;;;;4989252;28;20184;-52
2023/07/23 07:21:11;;;;;;;11.57;9.60;;;16.20;99.90;;;;;;4989643;28;20751;-51
2023/07/23 07:23:37;;;;;;;14.43;9.63;;;16.30;99.90;;;;;;4989398;28;20627;-52
2023/07/23 07:26:02;;;;;;;20.03;9.77;;;16.30;79.00;;;;;;4989661;28;20187;-52
2023/07/23 07:28:33;;;;;;;15.20;10.03;;;16.40;99.90;;;;;;4989423;28;20237;-51
2023/07/23 07:31:00;;;;;;;14.37;10.50;;;16.40;53.30;;;;;;4992334;28;20226;-52
2023/07/23 07:33:27;;;;;;;15.30;9.90;;;16.30;2.00;;;;;;4992861;28;20423;-51
2023/07/23 07:35:54;;;;;;;13.03;9.93;;;16.30;25.60;;;;;;4992912;28;20466;-52
2023/07/23 07:38:20;;;;;;;15.20;10.10;;;16.40;72.40;;;;;;4992965;28;20510;-51
2023/07/23 07:40:48;;;;;;;14.33;10.53;;;16.40;9.90;;;;;;4993083;28;20849;-52
2023/07/23 07:43:13;;;;;;;13.63;10.10;;;16.50;24.20;;;;;;4993104;28;20195;-53
2023/07/23 07:45:39;;;;;;;13.23;9.83;;;16.60;26.10;;;;;;4992600;28;20427;-52
2023/07/23 07:48:05;;;;;;;13.03;9.43;;;16.60;12.70;;;;;;4992621;28;20188;-52
2023/07/23 07:50:30;;;;;;;13.07;9.43;;;16.60;12.70;;;;;;4992609;28;20233;-51
2023/07/23 07:52:56;;;;;;;15.37;9.97;;;16.50;1.00;;;;;;4992614;28;20219;-51
2023/07/23 07:55:22;;;;;;;18.30;10.10;;;16.50;1.00;;;;;;4992653;28;20330;-52
2023/07/23 07:57:48;;;;;;;12.97;9.80;;;16.60;37.20;;;;;;4992805;28;20183;-52
2023/07/23 08:00:14;;;;;;;12.83;9.97;;;16.70;32.00;;;;;;4992975;28;20190;-51
2023/07/23 08:02:41;;;;;;;13.87;9.40;;;16.70;1.00;;;;;;4992554;28;20483;-51
2023/07/23 08:05:07;;;;;;;15.00;10.23;;;16.90;1.00;;;;;;4992829;28;20427;-52
2023/07/23 08:07:34;;;;;;;13.63;9.50;;;16.90;1.00;;;;;;4992219;28;20440;-52
2023/07/23 08:10:00;;;;;;;11.70;9.07;;;17.00;1.00;;;;;;4992517;28;20520;-52
2023/07/23 08:12:27;;;;;;;12.47;9.60;;;17.00;1.00;;;;;;4992239;28;20445;-50
